Station History

Weather Underground - logo

Station Historical Data
Daily Summary for December 31, 2017 Units:  English    Metric   Both
« Previous Day
Next Day »
Daily Weekly Monthly Yearly Custom
  High: Low: Average:
Temperature: TemperatureF °F 37.7 °F 49.2 °F
Dew Point: DewpointF °F 35.3 °F 39.6 °F
Humidity: Humidity % 37 % 73 %
Wind Speed: WindSpeedMPH mph 0.0 mph 0.2 mph
Wind Gust: WindSpeedGustMPH mph - -
Wind:- - SW
Pressure: PressureIn in 30.04 in -
Precipitation: 0.00 in    
Historical Graphs
 
 
Tabular Data for December 31, 2017
Time Temperature Dew Point Pressure Wind Wind Speed Wind Gust Humidity Rainfall Rate (Hourly)
TemperatureF °F DewpointF °F PressureIn in Calm     Humidity % HourlyPrecipIn in
00:04 42.5 °F 38.9 °F 30.06 in Calm     87 % 0.00 in
00:09 42.7 °F 39.1 °F 30.06 in Calm     87 % 0.00 in
00:11 42.7 °F 39.1 °F 30.06 in Calm     87 % 0.00 in
00:15 42.6 °F 38.7 °F 30.06 in Calm     86 % 0.00 in
00:20 42.1 °F 38.2 °F 30.06 in Calm     86 % 0.00 in
00:25 42.1 °F 38.5 °F 30.05 in Calm     87 % 0.00 in
00:30 42.3 °F 38.7 °F 30.05 in Calm     87 % 0.00 in
00:33 42.4 °F 38.8 °F 30.05 in Calm     87 % 0.00 in
00:35 42.5 °F 38.9 °F 30.05 in Calm     87 % 0.00 in
00:40 42.7 °F 38.8 °F 30.05 in Calm     86 % 0.00 in
00:41 42.7 °F 38.8 °F 30.05 in Calm     86 % 0.00 in
00:46 42.4 °F 38.2 °F 30.05 in Calm     85 % 0.00 in
00:51 42.2 °F 38.3 °F 30.05 in Calm     86 % 0.00 in
00:56 42.2 °F 38.3 °F 30.05 in Calm     86 % 0.00 in
01:01 42.0 °F 38.1 °F 30.05 in Calm     86 % 0.00 in
01:06 41.7 °F 37.8 °F 30.05 in Calm     86 % 0.00 in
01:11 41.6 °F 38.0 °F 30.05 in Calm     87 % 0.00 in
01:12 41.6 °F 38.0 °F 30.05 in Calm     87 % 0.00 in
01:17 41.7 °F 38.1 °F 30.05 in Calm     87 % 0.00 in
01:18 41.7 °F 38.1 °F 30.05 in Calm     87 % 0.00 in
01:19 41.7 °F 38.1 °F 30.05 in Calm     87 % 0.00 in
01:24 41.6 °F 38.0 °F 30.05 in Calm     87 % 0.00 in
01:27 41.5 °F 37.9 °F 30.05 in Calm     87 % 0.00 in
01:32 41.4 °F 37.8 °F 30.05 in Calm     87 % 0.00 in
01:33 41.4 °F 37.8 °F 30.06 in Calm     87 % 0.00 in
01:39 41.2 °F 37.6 °F 30.06 in Calm     87 % 0.00 in
01:40 41.2 °F 37.6 °F 30.06 in Calm     87 % 0.00 in
01:45 41.1 °F 37.8 °F 30.06 in Calm     88 % 0.00 in
01:46 41.1 °F 37.8 °F 30.06 in Calm     88 % 0.00 in
01:51 40.9 °F 37.6 °F 30.06 in Calm     88 % 0.00 in
01:52 40.8 °F 37.5 °F 30.06 in Calm     88 % 0.00 in
01:55 40.7 °F 37.4 °F 30.06 in Calm     88 % 0.00 in
01:59 40.6 °F 37.3 °F 30.06 in Calm     88 % 0.00 in
02:04 40.5 °F 37.5 °F 30.06 in Calm     89 % 0.00 in
02:05 40.5 °F 37.5 °F 30.06 in Calm     89 % 0.00 in
02:10 40.4 °F 37.4 °F 30.06 in Calm     89 % 0.00 in
02:11 40.4 °F 37.4 °F 30.06 in Calm     89 % 0.00 in
02:16 40.3 °F 37.3 °F 30.07 in Calm     89 % 0.00 in
02:19 40.1 °F 37.1 °F 30.07 in West 1.2 mph 1.2 mph 89 % 0.00 in
02:24 39.7 °F 36.7 °F 30.07 in West 1.2 mph   89 % 0.00 in
02:25 39.6 °F 36.6 °F 30.07 in West 1.2 mph   89 % 0.00 in
02:30 39.3 °F 36.3 °F 30.07 in Calm     89 % 0.00 in
02:31 39.3 °F 36.3 °F 30.07 in Calm     89 % 0.00 in
02:36 39.1 °F 36.4 °F 30.07 in Calm     90 % 0.00 in
02:37 39.2 °F 36.5 °F 30.07 in Calm     90 % 0.00 in
02:42 39.2 °F 36.5 °F 30.07 in Calm     90 % 0.00 in
02:45 39.2 °F 36.8 °F 30.07 in Calm     91 % 0.00 in
02:47 39.2 °F 36.8 °F 30.07 in Calm     91 % 0.00 in
02:52 39.3 °F 36.9 °F 30.07 in Calm     91 % 0.00 in
02:53 39.3 °F 36.9 °F 30.07 in Calm     91 % 0.00 in
02:58 39.6 °F 37.2 °F 30.06 in Calm     91 % 0.00 in
03:03 39.8 °F 37.4 °F 30.06 in Calm     91 % 0.00 in
03:08 39.9 °F 37.5 °F 30.06 in Calm     91 % 0.00 in
03:09 39.9 °F 37.5 °F 30.06 in Calm     91 % 0.00 in
03:14 40.0 °F 37.3 °F 30.06 in Calm     90 % 0.00 in
03:15 40.1 °F 37.4 °F 30.06 in Calm     90 % 0.00 in
03:20 40.2 °F 37.5 °F 30.06 in Calm     90 % 0.00 in
03:25 40.4 °F 37.7 °F 30.06 in Calm     90 % 0.00 in
03:26 40.4 °F 37.7 °F 30.06 in Calm     90 % 0.00 in
03:31 40.6 °F 37.9 °F 30.05 in Calm     90 % 0.00 in
03:32 40.6 °F 37.9 °F 30.05 in Calm     90 % 0.00 in
03:36 40.7 °F 38.0 °F 30.06 in Calm     90 % 0.00 in
03:37 40.7 °F 38.0 °F 30.06 in Calm     90 % 0.00 in
03:42 40.6 °F 37.6 °F 30.05 in Calm     89 % 0.00 in
03:43 40.5 °F 37.5 °F 30.05 in Calm     89 % 0.00 in
03:48 40.3 °F 37.3 °F 30.05 in Calm     89 % 0.00 in
03:53 40.1 °F 37.1 °F 30.05 in Calm     89 % 0.00 in
03:54 40.1 °F 37.1 °F 30.05 in Calm     89 % 0.00 in
03:59 40.0 °F 37.3 °F 30.06 in Calm     90 % 0.00 in
04:02 39.9 °F 36.9 °F 30.06 in Calm     89 % 0.00 in
04:07 39.6 °F 36.9 °F 30.06 in Calm     90 % 0.00 in
04:12 39.6 °F 37.2 °F 30.06 in Calm     91 % 0.00 in
04:13 39.6 °F 37.2 °F 30.06 in Calm     91 % 0.00 in
04:18 39.7 °F 37.3 °F 30.06 in Calm     91 % 0.00 in
04:21 39.7 °F 37.3 °F 30.06 in Calm     91 % 0.00 in
04:23 39.6 °F 37.2 °F 30.06 in Calm     91 % 0.00 in
04:26 39.7 °F 37.3 °F 30.06 in Calm     91 % 0.00 in
04:29 39.7 °F 37.6 °F 30.06 in Calm     92 % 0.00 in
04:32 39.8 °F 37.7 °F 30.06 in Calm     92 % 0.00 in
04:37 39.9 °F 37.8 °F 30.06 in Calm     92 % 0.00 in
04:38 39.9 °F 37.8 °F 30.06 in Calm     92 % 0.00 in
04:43 40.0 °F 37.6 °F 30.06 in Calm     91 % 0.00 in
04:44 40.0 °F 37.6 °F 30.06 in Calm     91 % 0.00 in
04:49 40.0 °F 37.6 °F 30.06 in Calm     91 % 0.00 in
04:51 40.0 °F 37.6 °F 30.06 in Calm     91 % 0.00 in
04:55 40.0 °F 37.6 °F 30.06 in Calm     91 % 0.00 in
04:56 40.0 °F 37.6 °F 30.06 in Calm     91 % 0.00 in
05:01 39.9 °F 37.2 °F 30.07 in Calm     90 % 0.00 in
05:05 39.9 °F 37.5 °F 30.07 in Calm     91 % 0.00 in
05:09 39.9 °F 37.5 °F 30.07 in Calm     91 % 0.00 in
05:11 40.0 °F 37.6 °F 30.07 in Calm     91 % 0.00 in
05:16 40.3 °F 37.9 °F 30.07 in Calm     91 % 0.00 in
05:17 40.3 °F 37.9 °F 30.07 in Calm     91 % 0.00 in
05:22 40.4 °F 38.0 °F 30.08 in Calm     91 % 0.00 in
05:24 40.4 °F 38.0 °F 30.08 in Calm     91 % 0.00 in
05:27 40.3 °F 37.9 °F 30.08 in Calm     91 % 0.00 in
05:30 40.3 °F 37.9 °F 30.08 in Calm     91 % 0.00 in
05:35 40.3 °F 37.9 °F 30.08 in Calm     91 % 0.00 in
05:40 40.2 °F 37.8 °F 30.08 in Calm     91 % 0.00 in
05:42 40.2 °F 37.5 °F 30.08 in Calm     90 % 0.00 in
05:43 40.2 °F 37.5 °F 30.08 in Calm     90 % 0.00 in
05:48 40.1 °F 37.4 °F 30.07 in Calm     90 % 0.00 in
05:52 40.1 °F 37.7 °F 30.08 in Calm     91 % 0.00 in
05:57 40.1 °F 37.4 °F 30.08 in Calm     90 % 0.00 in
05:58 40.1 °F 37.4 °F 30.08 in Calm     90 % 0.00 in
06:03 40.0 °F 37.3 °F 30.08 in Calm     90 % 0.00 in
06:04 39.9 °F 37.2 °F 30.08 in Calm     90 % 0.00 in
06:09 39.3 °F 36.3 °F 30.09 in Calm     89 % 0.00 in
06:14 38.5 °F 35.8 °F 30.10 in Calm     90 % 0.00 in
06:19 38.0 °F 35.3 °F 30.10 in Calm     90 % 0.00 in
06:24 37.9 °F 35.5 °F 30.10 in Calm     91 % 0.00 in
06:28 37.7 °F 35.3 °F 30.10 in Calm     91 % 0.00 in
06:33 37.8 °F 35.7 °F 30.10 in Calm     92 % 0.00 in
06:34 37.8 °F 35.7 °F 30.10 in Calm     92 % 0.00 in
06:35 37.9 °F 35.8 °F 30.10 in Calm     92 % 0.00 in
06:40 37.9 °F 35.8 °F 30.10 in Calm     92 % 0.00 in
06:43 38.0 °F 36.2 °F 30.10 in Calm     93 % 0.00 in
06:46 38.1 °F 36.3 °F 30.10 in Calm     93 % 0.00 in
06:49 38.2 °F 36.4 °F 30.10 in Calm     93 % 0.00 in
06:53 38.4 °F 36.3 °F 30.10 in Calm     92 % 0.00 in
06:56 38.4 °F 36.3 °F 30.10 in Calm     92 % 0.00 in
06:58 38.5 °F 36.4 °F 30.10 in Calm     92 % 0.00 in
07:03 38.6 °F 36.2 °F 30.10 in Calm     91 % 0.00 in
07:05 38.5 °F 36.1 °F 30.10 in Calm     91 % 0.00 in
07:09 38.4 °F 36.0 °F 30.10 in West 1.0 mph   91 % 0.00 in
07:14 38.4 °F 36.0 °F 30.10 in West 1.2 mph   91 % 0.00 in
07:16 38.4 °F 36.0 °F 30.10 in Calm     91 % 0.00 in
07:20 38.5 °F 36.1 °F 30.10 in Calm     91 % 0.00 in
07:25 38.6 °F 35.9 °F 30.10 in Calm     90 % 0.00 in
07:26 38.6 °F 35.9 °F 30.10 in Calm     90 % 0.00 in
07:31 38.6 °F 35.9 °F 30.10 in Calm     90 % 0.00 in
07:34 38.5 °F 35.8 °F 30.10 in Calm     90 % 0.00 in
07:36 38.3 °F 35.6 °F 30.10 in Calm     90 % 0.00 in
07:39 38.2 °F 35.5 °F 30.10 in Calm     90 % 0.00 in
07:44 38.1 °F 35.4 °F 30.11 in Calm     90 % 0.00 in
07:45 38.1 °F 35.4 °F 30.11 in Calm     90 % 0.00 in
07:46 38.0 °F 35.3 °F 30.11 in Calm     90 % 0.00 in
07:51 38.0 °F 35.3 °F 30.11 in Calm     90 % 0.00 in
07:53 38.0 °F 35.3 °F 30.11 in Calm     90 % 0.00 in
07:58 38.0 °F 35.6 °F 30.11 in Calm     91 % 0.00 in
07:59 38.0 °F 35.6 °F 30.12 in Calm     91 % 0.00 in
08:04 38.4 °F 36.3 °F 30.11 in Calm     92 % 0.00 in
08:06 38.6 °F 36.5 °F 30.11 in Calm     92 % 0.00 in
08:10 39.5 °F 37.4 °F 30.11 in Calm     92 % 0.00 in
08:13 40.5 °F 37.8 °F 30.12 in Calm     90 % 0.00 in
08:18 41.8 °F 38.5 °F 30.12 in East 1.2 mph 1.2 mph 88 % 0.00 in
08:19 41.8 °F 38.5 °F 30.12 in East 1.2 mph 1.2 mph 88 % 0.00 in
08:24 42.7 °F 39.1 °F 30.11 in Calm     87 % 0.00 in
08:25 43.0 °F 39.4 °F 30.11 in Calm   0.1 mph 87 % 0.00 in
08:27 43.2 °F 39.3 °F 30.12 in ESE 1.2 mph 1.2 mph 86 % 0.00 in
08:30 43.3 °F 39.1 °F 30.12 in ESE 1.2 mph 1.2 mph 85 % 0.00 in
08:32 43.4 °F 39.2 °F 30.11 in ESE 1.2 mph 1.2 mph 85 % 0.00 in
08:37 44.1 °F 39.9 °F 30.11 in ESE 1.2 mph   85 % 0.00 in
08:40 44.7 °F 40.2 °F 30.11 in ESE 1.2 mph 1.2 mph 84 % 0.00 in
08:42 45.1 °F 40.2 °F 30.12 in Calm     83 % 0.00 in
08:47 46.5 °F 41.3 °F 30.12 in Calm     82 % 0.00 in
08:52 47.9 °F 42.0 °F 30.12 in SE 1.2 mph   80 % 0.00 in
08:54 48.4 °F 41.9 °F 30.12 in SE 2.3 mph 2.3 mph 78 % 0.00 in
08:58 49.2 °F 42.3 °F 30.12 in ESE 1.2 mph 1.2 mph 77 % 0.00 in
09:00 49.5 °F 41.9 °F 30.12 in South 1.2 mph 1.2 mph 75 % 0.00 in
09:05 50.2 °F 41.9 °F 30.13 in SSE 2.3 mph 2.3 mph 73 % 0.00 in
09:07 50.4 °F 41.7 °F 30.12 in SSE 2.3 mph 2.3 mph 72 % 0.00 in
09:12 51.1 °F 42.0 °F 30.12 in SE 2.3 mph 2.3 mph 71 % 0.00 in
09:13 51.2 °F 42.5 °F 30.13 in SE 2.3 mph 2.3 mph 72 % 0.00 in
09:14 51.3 °F 42.2 °F 30.13 in SSE 1.2 mph   71 % 0.00 in
09:19 51.8 °F 42.3 °F 30.13 in East 1.2 mph   70 % 0.00 in
09:20 52.0 °F 42.5 °F 30.13 in SE 1.2 mph 1.2 mph 70 % 0.00 in
09:22 52.3 °F 42.8 °F 30.13 in South 1.2 mph 1.2 mph 70 % 0.00 in
09:27 52.7 °F 42.4 °F 30.13 in Calm     68 % 0.00 in
09:31 53.1 °F 42.4 °F 30.13 in SE 1.2 mph   67 % 0.00 in
09:33 53.3 °F 42.2 °F 30.13 in Calm     66 % 0.00 in
09:36 53.8 °F 42.7 °F 30.13 in Calm     66 % 0.00 in
09:40 53.7 °F 41.8 °F 30.13 in ENE 1.2 mph   64 % 0.00 in
09:44 54.1 °F 42.6 °F 30.13 in SSE 1.2 mph   65 % 0.00 in
09:49 54.7 °F 42.3 °F 30.13 in Calm   0.1 mph 63 % 0.00 in
09:50 54.8 °F 42.4 °F 30.13 in NW 1.2 mph 1.2 mph 63 % 0.00 in
09:55 54.1 °F 41.4 °F 30.13 in Calm     62 % 0.00 in
09:58 54.0 °F 41.3 °F 30.13 in Calm     62 % 0.00 in
10:01 53.9 °F 41.2 °F 30.13 in Calm     62 % 0.00 in
10:03 54.2 °F 41.5 °F 30.13 in Calm     62 % 0.00 in
10:06 54.7 °F 42.3 °F 30.13 in Calm     63 % 0.00 in
10:08 55.4 °F 42.6 °F 30.13 in East 1.2 mph   62 % 0.00 in
10:13 56.0 °F 42.3 °F 30.13 in East 1.2 mph   60 % 0.00 in
10:14 56.1 °F 42.8 °F 30.13 in SSE 1.2 mph 1.2 mph 61 % 0.00 in
10:18 56.8 °F 42.6 °F 30.13 in Calm     59 % 0.00 in
10:20 57.0 °F 42.4 °F 30.13 in Calm     58 % 0.00 in
10:25 57.5 °F 43.3 °F 30.13 in SSE 1.2 mph 1.2 mph 59 % 0.00 in
10:26 57.8 °F 43.6 °F 30.13 in Calm     59 % 0.00 in
10:31 58.4 °F 42.8 °F 30.13 in Calm     56 % 0.00 in
10:33 58.7 °F 43.5 °F 30.13 in Calm     57 % 0.00 in
10:35 58.9 °F 42.8 °F 30.13 in Calm     55 % 0.00 in
10:38 59.1 °F 43.4 °F 30.13 in Calm     56 % 0.00 in
10:41 59.1 °F 42.9 °F 30.13 in North 1.2 mph 1.2 mph 55 % 0.00 in
10:44 58.8 °F 42.7 °F 30.13 in NW 1.2 mph 1.2 mph 55 % 0.00 in
10:49 58.3 °F 42.7 °F 30.13 in WNW 2.3 mph 2.3 mph 56 % 0.00 in
10:54 58.1 °F 42.9 °F 30.12 in Calm     57 % 0.00 in
10:57 58.6 °F 42.9 °F 30.12 in Calm     56 % 0.00 in
11:02 59.3 °F 44.5 °F 30.11 in Calm   0.3 mph 58 % 0.00 in
11:03 59.5 °F 44.2 °F 30.11 in SE 1.2 mph   57 % 0.00 in
11:08 60.0 °F 42.8 °F 30.11 in Calm     53 % 0.00 in
11:10 60.1 °F 42.9 °F 30.11 in SSE 1.2 mph 1.2 mph 53 % 0.00 in
11:15 60.1 °F 42.4 °F 30.10 in West 2.3 mph 2.3 mph 52 % 0.00 in
11:17 60.1 °F 42.4 °F 30.10 in Calm     52 % 0.00 in
11:20 60.4 °F 43.2 °F 30.10 in Calm     53 % 0.00 in
11:23 60.7 °F 43.0 °F 30.10 in Calm     52 % 0.00 in
11:28 61.1 °F 43.3 °F 30.10 in Calm     52 % 0.00 in
11:33 62.0 °F 44.2 °F 30.10 in Calm     52 % 0.00 in
11:37 62.5 °F 43.6 °F 30.10 in Calm     50 % 0.00 in
11:38 62.6 °F 43.2 °F 30.09 in NNW 1.2 mph   49 % 0.00 in
11:42 63.1 °F 43.6 °F 30.09 in Calm     49 % 0.00 in
11:47 63.7 °F 43.6 °F 30.09 in Calm     48 % 0.00 in
11:48 63.7 °F 43.1 °F 30.09 in NW 1.0 mph 1.0 mph 47 % 0.00 in
11:53 64.1 °F 42.9 °F 30.09 in Calm   0.8 mph 46 % 0.00 in
11:54 64.2 °F 43.5 °F 30.09 in WNW 1.2 mph 1.2 mph 47 % 0.00 in
11:57 64.4 °F 43.7 °F 30.09 in NW 1.2 mph 1.2 mph 47 % 0.00 in
12:02 64.8 °F 43.5 °F 30.09 in Calm     46 % 0.00 in
12:03 65.0 °F 43.7 °F 30.09 in SSW 1.2 mph   46 % 0.00 in
12:07 65.2 °F 43.3 °F 30.08 in Calm     45 % 0.00 in
12:09 65.3 °F 43.4 °F 30.08 in WNW 2.3 mph 2.3 mph 45 % 0.00 in
12:13 65.3 °F 42.8 °F 30.08 in North 1.2 mph   44 % 0.00 in
12:39 66.2 °F 42.4 °F 30.07 in Calm     42 % 0.00 in
12:40 66.2 °F 43.6 °F 30.07 in Calm     44 % 0.00 in
12:45 66.0 °F 42.2 °F 30.06 in Calm     42 % 0.00 in
12:48 65.9 °F 42.1 °F 30.06 in Calm     42 % 0.00 in
12:51 65.8 °F 43.3 °F 30.06 in Calm     44 % 0.00 in
12:55 66.0 °F 42.9 °F 30.06 in Calm     43 % 0.00 in
12:58 66.0 °F 43.5 °F 30.06 in Calm     44 % 0.00 in
13:01 66.0 °F 42.2 °F 30.06 in Calm     42 % 0.00 in
13:06 66.1 °F 41.7 °F 30.06 in Calm   0.2 mph 41 % 0.00 in
13:09 66.2 °F 42.4 °F 30.06 in Calm     42 % 0.00 in
13:14 66.2 °F 42.4 °F 30.06 in Calm     42 % 0.00 in
13:18 66.4 °F 42.6 °F 30.06 in Calm     42 % 0.00 in
13:23 66.2 °F 41.8 °F 30.06 in Calm     41 % 0.00 in
13:26 66.1 °F 42.3 °F 30.06 in Calm     42 % 0.00 in
13:31 66.0 °F 42.2 °F 30.06 in Calm     42 % 0.00 in
13:36 66.0 °F 42.9 °F 30.06 in Calm     43 % 0.00 in
13:39 66.0 °F 42.2 °F 30.06 in Calm     42 % 0.00 in
13:44 66.0 °F 42.9 °F 30.06 in Calm     43 % 0.00 in
13:47 66.0 °F 42.9 °F 30.06 in Calm   0.3 mph 43 % 0.00 in
13:49 65.9 °F 43.4 °F 30.06 in Calm     44 % 0.00 in
13:53 65.8 °F 43.9 °F 30.06 in Calm     45 % 0.00 in
13:55 65.8 °F 42.1 °F 30.06 in Calm     42 % 0.00 in
13:58 65.8 °F 42.1 °F 30.06 in Calm     42 % 0.00 in
14:03 65.9 °F 42.1 °F 30.05 in WNW 1.2 mph   42 % 0.00 in
14:04 65.9 °F 42.1 °F 30.06 in Calm     42 % 0.00 in
14:09 65.8 °F 42.7 °F 30.06 in Calm     43 % 0.00 in
14:14 65.6 °F 42.5 °F 30.05 in Calm     43 % 0.00 in
14:17 65.5 °F 42.4 °F 30.05 in Calm     43 % 0.00 in
14:22 65.5 °F 43.6 °F 30.05 in Calm     45 % 0.00 in
14:23 65.5 °F 43.0 °F 30.05 in Calm     44 % 0.00 in
14:28 65.8 °F 42.7 °F 30.05 in WSW 1.2 mph 1.2 mph 43 % 0.00 in
14:31 66.0 °F 42.9 °F 30.05 in Calm     43 % 0.00 in
14:32 66.0 °F 42.2 °F 30.05 in Calm     42 % 0.00 in
14:37 66.4 °F 42.0 °F 30.05 in North 2.3 mph 2.3 mph 41 % 0.00 in
14:41 66.6 °F 41.5 °F 30.05 in WNW 1.0 mph 1.0 mph 40 % 0.00 in
14:46 66.8 °F 41.0 °F 30.05 in NW 1.2 mph 1.2 mph 39 % 0.00 in
14:47 66.8 °F 41.7 °F 30.05 in Calm     40 % 0.00 in
14:52 67.0 °F 41.2 °F 30.05 in Calm     39 % 0.00 in
14:57 67.1 °F 40.6 °F 30.05 in NW 1.2 mph 1.2 mph 38 % 0.00 in
14:59 67.2 °F 41.4 °F 30.05 in Calm   0.4 mph 39 % 0.00 in
15:04 67.3 °F 40.1 °F 30.05 in WNW 1.2 mph   37 % 0.00 in
15:06 67.3 °F 40.8 °F 30.05 in WNW 1.2 mph   38 % 0.00 in
15:11 67.3 °F 40.8 °F 30.04 in Calm     38 % 0.00 in
15:16 67.5 °F 40.3 °F 30.04 in WNW 1.2 mph 1.2 mph 37 % 0.00 in
15:17 67.5 °F 40.3 °F 30.04 in WNW 1.2 mph   37 % 0.00 in
15:22 67.5 °F 40.3 °F 30.04 in Calm     37 % 0.00 in
15:24 67.5 °F 40.3 °F 30.04 in NNW 1.2 mph 1.2 mph 37 % 0.00 in
15:28 67.3 °F 40.1 °F 30.04 in Calm     37 % 0.00 in
15:30 67.2 °F 40.0 °F 30.04 in Calm     37 % 0.00 in
15:31 67.2 °F 40.0 °F 30.04 in Calm     37 % 0.00 in
15:35 67.2 °F 40.0 °F 30.04 in Calm     37 % 0.00 in
15:37 67.2 °F 40.0 °F 30.04 in Calm     37 % 0.00 in
15:42 67.2 °F 41.4 °F 30.04 in NW 1.2 mph 1.2 mph 39 % 0.00 in
15:46 67.2 °F 41.4 °F 30.04 in Calm   0.1 mph 39 % 0.00 in
15:51 66.9 °F 41.8 °F 30.04 in WNW 1.2 mph 1.2 mph 40 % 0.00 in
15:54 66.8 °F 41.0 °F 30.04 in WNW 1.2 mph   39 % 0.00 in
15:57 66.7 °F 41.6 °F 30.04 in Calm     40 % 0.00 in
15:59 66.6 °F 41.5 °F 30.04 in WNW 1.2 mph   40 % 0.00 in
16:04 66.3 °F 41.9 °F 30.04 in Calm     41 % 0.00 in
16:09 66.0 °F 42.2 °F 30.04 in Calm     42 % 0.00 in
16:14 65.6 °F 41.9 °F 30.04 in Calm     42 % 0.00 in
16:15 65.4 °F 41.7 °F 30.05 in Calm     42 % 0.00 in
16:20 64.9 °F 41.9 °F 30.05 in Calm     43 % 0.00 in
16:21 64.8 °F 41.8 °F 30.05 in Calm     43 % 0.00 in
16:26 64.1 °F 41.7 °F 30.05 in Calm     44 % 0.00 in
16:29 63.7 °F 41.9 °F 30.05 in Calm     45 % 0.00 in
16:30 63.6 °F 41.9 °F 30.05 in Calm     45 % 0.00 in
16:35 62.9 °F 41.2 °F 30.05 in Calm     45 % 0.00 in
16:36 62.8 °F 41.7 °F 30.05 in Calm     46 % 0.00 in
16:41 62.0 °F 41.5 °F 30.05 in Calm     47 % 0.00 in
16:46 61.0 °F 41.7 °F 30.05 in Calm     49 % 0.00 in
16:47 60.8 °F 42.0 °F 30.05 in Calm     50 % 0.00 in
16:48 60.7 °F 41.9 °F 30.05 in Calm     50 % 0.00 in
16:53 59.9 °F 42.2 °F 30.06 in Calm     52 % 0.00 in
16:54 59.8 °F 42.6 °F 30.06 in Calm     53 % 0.00 in
16:58 59.3 °F 43.6 °F 30.06 in Calm     56 % 0.00 in
17:01 59.0 °F 43.3 °F 30.06 in Calm     56 % 0.00 in
17:06 58.2 °F 42.1 °F 30.06 in Calm     55 % 0.00 in
17:11 57.5 °F 42.4 °F 30.06 in Calm     57 % 0.00 in
17:14 57.1 °F 42.0 °F 30.07 in Calm     57 % 0.00 in
17:19 56.6 °F 42.0 °F 30.07 in Calm     58 % 0.00 in
17:22 56.2 °F 42.1 °F 30.07 in Calm     59 % 0.00 in
17:23 56.1 °F 42.0 °F 30.07 in Calm     59 % 0.00 in
17:28 55.5 °F 41.8 °F 30.07 in Calm     60 % 0.00 in
17:29 55.4 °F 42.2 °F 30.07 in Calm     61 % 0.00 in
17:34 54.8 °F 42.0 °F 30.08 in Calm     62 % 0.00 in
17:35 54.7 °F 41.9 °F 30.08 in Calm     62 % 0.00 in
17:36 54.5 °F 41.7 °F 30.08 in Calm     62 % 0.00 in
17:41 54.2 °F 41.9 °F 30.08 in Calm     63 % 0.00 in
17:45 53.9 °F 42.0 °F 30.08 in Calm     64 % 0.00 in
17:50 53.5 °F 42.0 °F 30.08 in Calm     65 % 0.00 in
17:54 53.3 °F 42.2 °F 30.09 in Calm     66 % 0.00 in
17:56 53.2 °F 42.1 °F 30.09 in Calm     66 % 0.00 in
18:01 52.9 °F 41.4 °F 30.09 in Calm     65 % 0.00 in
18:04 52.8 °F 41.7 °F 30.09 in Calm     66 % 0.00 in
18:06 52.6 °F 41.6 °F 30.09 in Calm     66 % 0.00 in
18:11 52.1 °F 41.5 °F 30.09 in Calm     67 % 0.00 in
18:14 51.9 °F 41.3 °F 30.09 in Calm     67 % 0.00 in
18:17 51.7 °F 41.5 °F 30.09 in Calm     68 % 0.00 in
18:20 51.5 °F 41.7 °F 30.09 in Calm     69 % 0.00 in
18:25 51.0 °F 41.6 °F 30.10 in Calm     70 % 0.00 in
18:26 50.9 °F 41.5 °F 30.10 in Calm     70 % 0.00 in
18:31 50.7 °F 41.6 °F 30.10 in Calm     71 % 0.00 in
18:36 50.6 °F 41.5 °F 30.10 in Calm     71 % 0.00 in
18:37 50.6 °F 41.5 °F 30.10 in Calm     71 % 0.00 in
18:42 50.4 °F 41.3 °F 30.10 in Calm     71 % 0.00 in
18:43 50.3 °F 41.6 °F 30.11 in Calm     72 % 0.00 in
18:46 50.1 °F 41.4 °F 30.11 in Calm     72 % 0.00 in
18:49 49.9 °F 41.2 °F 30.11 in Calm     72 % 0.00 in
18:54 49.5 °F 41.2 °F 30.11 in Calm     73 % 0.00 in
18:55 49.5 °F 41.2 °F 30.11 in Calm     73 % 0.00 in
18:59 49.3 °F 41.0 °F 30.11 in Calm     73 % 0.00 in
19:03 49.0 °F 40.7 °F 30.11 in Calm     73 % 0.00 in
19:08 48.9 °F 41.0 °F 30.11 in Calm     74 % 0.00 in
19:13 48.9 °F 40.6 °F 30.11 in Calm     73 % 0.00 in
19:14 48.9 °F 40.6 °F 30.11 in Calm     73 % 0.00 in
19:19 48.7 °F 40.4 °F 30.12 in Calm     73 % 0.00 in
19:20 48.7 °F 40.4 °F 30.12 in Calm     73 % 0.00 in
19:25 48.5 °F 40.6 °F 30.12 in Calm     74 % 0.00 in
19:26 48.4 °F 40.5 °F 30.12 in Calm     74 % 0.00 in
19:31 48.2 °F 40.6 °F 30.12 in WNW 1.2 mph 1.2 mph 75 % 0.00 in
19:35 47.6 °F 40.1 °F 30.12 in Calm     75 % 0.00 in
19:40 46.9 °F 40.1 °F 30.12 in Calm     77 % 0.00 in
19:45 46.6 °F 40.1 °F 30.12 in Calm     78 % 0.00 in
19:47 46.5 °F 40.0 °F 30.13 in Calm     78 % 0.00 in
19:51 46.5 °F 40.3 °F 30.13 in Calm     79 % 0.00 in
19:56 46.7 °F 40.2 °F 30.13 in Calm     78 % 0.00 in
19:58 46.7 °F 40.2 °F 30.13 in Calm     78 % 0.00 in
20:03 46.7 °F 40.2 °F 30.13 in Calm     78 % 0.00 in
20:05 46.5 °F 40.0 °F 30.13 in Calm     78 % 0.00 in
20:11 46.3 °F 40.1 °F 30.13 in Calm     79 % 0.00 in
20:13 46.2 °F 40.0 °F 30.13 in Calm     79 % 0.00 in
20:15 46.1 °F 39.9 °F 30.13 in Calm     79 % 0.00 in
20:18 45.9 °F 39.8 °F 30.13 in Calm     79 % 0.00 in
20:21 45.7 °F 39.6 °F 30.13 in Calm     79 % 0.00 in
20:24 45.6 °F 39.8 °F 30.13 in Calm     80 % 0.00 in
20:26 45.5 °F 39.7 °F 30.13 in Calm     80 % 0.00 in
20:29 45.2 °F 39.4 °F 30.13 in Calm     80 % 0.00 in
20:31 45.1 °F 39.6 °F 30.13 in Calm     81 % 0.00 in
20:35 45.0 °F 39.5 °F 30.13 in Calm     81 % 0.00 in
20:38 44.9 °F 39.4 °F 30.13 in Calm     81 % 0.00 in
20:40 44.8 °F 39.3 °F 30.13 in Calm     81 % 0.00 in
20:44 44.8 °F 39.3 °F 30.14 in Calm     81 % 0.00 in
20:46 45.0 °F 39.5 °F 30.13 in Calm     81 % 0.00 in
20:51 45.1 °F 39.3 °F 30.14 in Calm     80 % 0.00 in
20:52 45.1 °F 39.3 °F 30.14 in Calm     80 % 0.00 in
20:55 45.1 °F 39.3 °F 30.14 in Calm     80 % 0.00 in
20:58 45.1 °F 39.3 °F 30.14 in Calm     80 % 0.00 in
21:03 45.3 °F 39.5 °F 30.13 in Calm     80 % 0.00 in
21:04 45.3 °F 39.5 °F 30.14 in Calm     80 % 0.00 in
21:09 45.2 °F 39.1 °F 30.13 in Calm     79 % 0.00 in
21:11 45.1 °F 39.3 °F 30.14 in Calm     80 % 0.00 in
21:16 44.8 °F 39.0 °F 30.14 in Calm     80 % 0.00 in
21:17 44.7 °F 38.9 °F 30.14 in Calm     80 % 0.00 in
21:22 44.4 °F 38.6 °F 30.14 in Calm     80 % 0.00 in
21:23 44.4 °F 38.6 °F 30.14 in Calm     80 % 0.00 in
21:28 44.0 °F 38.5 °F 30.14 in Calm     81 % 0.00 in
21:33 43.7 °F 38.6 °F 30.14 in Calm     82 % 0.00 in
21:34 43.7 °F 38.6 °F 30.14 in Calm     82 % 0.00 in
21:39 43.6 °F 38.8 °F 30.14 in Calm     83 % 0.00 in
21:40 43.5 °F 38.7 °F 30.14 in Calm     83 % 0.00 in
21:45 43.3 °F 38.5 °F 30.14 in Calm     83 % 0.00 in
21:49 43.1 °F 38.6 °F 30.14 in Calm     84 % 0.00 in
21:50 43.1 °F 38.6 °F 30.14 in Calm     84 % 0.00 in
21:55 43.1 °F 38.6 °F 30.14 in Calm     84 % 0.00 in
21:58 43.2 °F 38.7 °F 30.14 in Calm     84 % 0.00 in
22:03 42.8 °F 38.0 °F 30.14 in Calm     83 % 0.00 in
22:07 42.8 °F 38.6 °F 30.14 in Calm     85 % 0.00 in
22:12 42.7 °F 38.2 °F 30.14 in Calm     84 % 0.00 in
22:13 42.6 °F 38.1 °F 30.15 in Calm     84 % 0.00 in
22:18 42.4 °F 37.9 °F 30.15 in Calm     84 % 0.00 in
22:23 42.1 °F 37.6 °F 30.15 in Calm     84 % 0.00 in
22:27 41.7 °F 37.2 °F 30.15 in Calm     84 % 0.00 in
22:32 41.3 °F 36.8 °F 30.16 in Calm     84 % 0.00 in
22:35 41.1 °F 36.9 °F 30.16 in Calm     85 % 0.00 in
22:40 41.1 °F 37.2 °F 30.16 in Calm     86 % 0.00 in
22:42 41.1 °F 37.5 °F 30.16 in Calm     87 % 0.00 in
22:43 41.1 °F 37.5 °F 30.16 in Calm     87 % 0.00 in
22:47 41.1 °F 37.5 °F 30.16 in Calm     87 % 0.00 in
22:52 41.1 °F 37.5 °F 30.17 in Calm     87 % 0.00 in
22:54 41.1 °F 37.5 °F 30.17 in Calm     87 % 0.00 in
22:59 41.0 °F 37.4 °F 30.17 in Calm     87 % 0.00 in
23:02 40.9 °F 37.6 °F 30.17 in Calm     88 % 0.00 in
23:06 40.8 °F 37.5 °F 30.17 in Calm     88 % 0.00 in
23:09 40.7 °F 37.1 °F 30.17 in Calm     87 % 0.00 in
23:14 40.6 °F 37.3 °F 30.17 in Calm     88 % 0.00 in
23:20 40.5 °F 37.2 °F 30.18 in Calm     88 % 0.00 in
23:21 40.4 °F 37.1 °F 30.18 in Calm     88 % 0.00 in
23:23 40.4 °F 37.1 °F 30.18 in Calm     88 % 0.00 in
23:26 40.3 °F 37.0 °F 30.18 in Calm     88 % 0.00 in
23:32 40.3 °F 37.0 °F 30.18 in Calm     88 % 0.00 in
23:37 40.1 °F 36.8 °F 30.18 in Calm     88 % 0.00 in
23:38 40.1 °F 36.8 °F 30.18 in Calm     88 % 0.00 in
23:42 40.0 °F 36.7 °F 30.19 in Calm     88 % 0.00 in
23:47 39.9 °F 36.6 °F 30.19 in Calm     88 % 0.00 in
23:48 39.8 °F 36.5 °F 30.18 in Calm     88 % 0.00 in
23:49 39.8 °F 36.5 °F 30.19 in Calm     88 % 0.00 in
23:54 39.8 °F 36.8 °F 30.19 in Calm     89 % 0.00 in
23:55 39.8 °F 36.8 °F 30.18 in Calm     89 % 0.00 in
23:59 40.0 °F 37.0 °F 30.19 in Calm     89 % 0.00 in
Park Place, Exeter, Tulare County, California, USA
Compliments of Weather Underground - 3.5 mb